createdAt,value
2022-10-24T00:01:38.327Z,23.40
2022-10-24T00:06:39.074Z,21.70
2022-10-24T00:09:08.830Z,22.13
2022-10-24T00:11:38.523Z,20.53
2022-10-24T00:14:06.416Z,20.70
2022-10-24T00:16:35.753Z,19.97
2022-10-24T00:19:03.655Z,19.57
2022-10-24T00:21:31.519Z,20.90
2022-10-24T00:23:59.377Z,21.13
2022-10-24T00:26:30.080Z,22.90
2022-10-24T00:28:57.969Z,20.17
2022-10-24T00:31:25.839Z,23.03
2022-10-24T00:33:53.720Z,24.97
2022-10-24T00:36:23.277Z,23.57
2022-10-24T00:38:52.446Z,27.37
2022-10-24T00:41:22.625Z,25.97
2022-10-24T00:43:51.872Z,20.77
2022-10-24T00:46:21.618Z,22.97
2022-10-24T00:48:53.199Z,22.10
2022-10-24T00:51:24.625Z,24.03
2022-10-24T00:53:55.314Z,25.10
2022-10-24T00:56:26.068Z,25.87
2022-10-24T00:58:57.908Z,23.53
2022-10-24T01:01:26.091Z,25.20
2022-10-24T01:03:53.937Z,22.73
2022-10-24T01:06:35.642Z,21.73
2022-10-24T01:09:14.600Z,21.60
2022-10-24T01:11:57.681Z,24.20
2022-10-24T01:14:51.711Z,24.17
2022-10-24T01:17:26.748Z,22.57
2022-10-24T01:20:18.638Z,20.53
2022-10-24T01:23:02.307Z,21.03
2022-10-24T01:25:42.224Z,20.73
2022-10-24T01:28:15.661Z,17.53
2022-10-24T01:30:48.617Z,18.47
2022-10-24T01:33:24.192Z,18.93
2022-10-24T01:35:56.931Z,17.77
2022-10-24T01:38:31.724Z,19.40
2022-10-24T01:41:04.712Z,19.13
2022-10-24T01:43:37.226Z,18.70
2022-10-24T01:46:10.993Z,18.77
2022-10-24T01:48:42.568Z,16.33
2022-10-24T01:51:12.891Z,17.77
2022-10-24T01:53:43.403Z,18.27
2022-10-24T01:56:11.575Z,18.20
2022-10-24T01:58:39.431Z,20.43
2022-10-24T02:01:13.449Z,21.87
2022-10-24T02:03:45.874Z,21.13
2022-10-24T02:06:20.328Z,19.63
2022-10-24T02:08:54.139Z,21.33
2022-10-24T02:11:22.039Z,21.77
2022-10-24T02:13:57.467Z,20.13
2022-10-24T02:16:27.073Z,18.87
2022-10-24T02:18:57.447Z,19.50
2022-10-24T02:21:32.922Z,19.67
2022-10-24T02:24:04.327Z,18.57
2022-10-24T02:26:35.660Z,20.43
2022-10-24T02:29:08.440Z,19.23
2022-10-24T02:31:42.460Z,20.43
2022-10-24T02:34:13.881Z,20.80
2022-10-24T02:36:45.152Z,20.80
2022-10-24T02:39:14.073Z,20.17
2022-10-24T02:41:44.669Z,20.17
2022-10-24T02:44:15.507Z,19.40
2022-10-24T02:46:47.484Z,18.97
2022-10-24T02:49:15.777Z,19.43
2022-10-24T02:51:45.964Z,19.60
2022-10-24T02:54:14.328Z,19.47
2022-10-24T02:56:47.087Z,19.07
2022-10-24T02:59:15.049Z,19.03
2022-10-24T03:01:44.347Z,18.70
2022-10-24T03:04:12.245Z,19.27
2022-10-24T03:06:40.079Z,19.73
2022-10-24T03:09:07.934Z,18.80
2022-10-24T03:11:35.960Z,19.07
2022-10-24T03:14:04.055Z,19.70
2022-10-24T03:16:32.009Z,19.40
2022-10-24T03:19:01.327Z,19.33
2022-10-24T03:21:29.163Z,19.23
2022-10-24T03:23:57.036Z,18.50
2022-10-24T03:26:24.919Z,18.57
2022-10-24T03:28:52.778Z,18.23
2022-10-24T03:31:20.656Z,18.93
2022-10-24T03:33:48.532Z,19.30
2022-10-24T03:36:17.955Z,19.50
2022-10-24T03:38:45.821Z,21.47
2022-10-24T03:41:13.668Z,21.17
2022-10-24T03:43:41.521Z,20.13
2022-10-24T03:46:09.475Z,19.20
2022-10-24T03:48:37.516Z,19.20
2022-10-24T03:51:05.452Z,20.20
2022-10-24T03:53:34.631Z,18.77
2022-10-24T03:56:02.562Z,17.77
2022-10-24T03:58:30.436Z,18.10
2022-10-24T04:00:59.409Z,16.70
2022-10-24T04:03:28.134Z,20.43
2022-10-24T04:05:56.088Z,21.23
2022-10-24T04:08:23.968Z,22.10
2022-10-24T04:10:53.209Z,19.40
2022-10-24T04:13:21.099Z,18.17
2022-10-24T04:15:48.996Z,17.73
2022-10-24T04:18:16.835Z,20.07
2022-10-24T04:20:44.677Z,20.27
2022-10-24T04:23:12.540Z,18.93
2022-10-24T04:25:41.003Z,20.03
2022-10-24T04:28:10.288Z,17.97
2022-10-24T04:30:38.189Z,17.63
2022-10-24T04:33:06.048Z,19.87
2022-10-24T04:35:33.897Z,17.70
2022-10-24T04:38:01.760Z,17.53
2022-10-24T04:40:29.600Z,16.93
2022-10-24T04:42:57.467Z,16.03
2022-10-24T04:45:26.641Z,15.30
2022-10-24T04:47:54.469Z,15.43
2022-10-24T04:50:22.292Z,16.07
2022-10-24T04:52:50.163Z,16.67
2022-10-24T04:55:18.803Z,16.77
2022-10-24T04:57:46.915Z,17.70
2022-10-24T05:00:15.658Z,17.73
2022-10-24T05:02:45.185Z,17.80
2022-10-24T05:05:13.433Z,18.30
2022-10-24T05:07:41.261Z,17.60
2022-10-24T05:10:09.923Z,19.03
2022-10-24T05:12:38.286Z,20.43
2022-10-24T05:15:07.660Z,17.93
2022-10-24T05:17:36.015Z,18.50
2022-10-24T05:20:06.143Z,17.77
2022-10-24T05:22:34.091Z,19.27
2022-10-24T05:25:01.980Z,20.93
2022-10-24T05:27:29.822Z,18.90
2022-10-24T05:29:57.827Z,17.17
2022-10-24T05:32:26.174Z,15.57
2022-10-24T05:34:54.152Z,15.57
2022-10-24T05:37:23.454Z,14.50
2022-10-24T05:39:51.356Z,16.13
2022-10-24T05:42:19.231Z,15.47
2022-10-24T05:44:47.107Z,18.90
2022-10-24T05:47:15.003Z,26.03
2022-10-24T05:49:42.988Z,23.43
2022-10-24T05:52:10.819Z,20.93
2022-10-24T05:54:55.208Z,18.97
2022-10-24T05:57:28.259Z,16.30
2022-10-24T05:59:56.087Z,15.60
2022-10-24T06:02:24.220Z,16.57
2022-10-24T06:04:52.137Z,15.17
2022-10-24T06:07:20.104Z,14.00
2022-10-24T06:09:49.322Z,13.97
2022-10-24T06:12:17.183Z,15.50
2022-10-24T06:14:45.762Z,16.00
2022-10-24T06:17:13.627Z,16.63
2022-10-24T06:19:41.662Z,16.40
2022-10-24T06:22:10.167Z,18.10
2022-10-24T06:24:39.297Z,17.20
2022-10-24T06:27:08.541Z,16.83
2022-10-24T06:29:36.820Z,17.37
2022-10-24T06:32:04.889Z,17.90
2022-10-24T06:34:32.889Z,18.37
2022-10-24T06:37:00.776Z,20.10
2022-10-24T06:39:28.700Z,18.40
2022-10-24T06:41:56.625Z,18.63
2022-10-24T06:44:25.931Z,19.67
2022-10-24T06:46:53.833Z,19.30
2022-10-24T06:49:21.699Z,18.20
2022-10-24T06:51:49.558Z,18.60
2022-10-24T06:54:17.529Z,18.75
2022-10-24T06:56:45.474Z,18.45
2022-10-24T06:59:17.363Z,19.30
2022-10-24T07:01:46.832Z,18.90
2022-10-24T07:04:14.844Z,18.52
2022-10-24T07:06:42.695Z,20.20
2022-10-24T07:09:15.148Z,20.63
2022-10-24T07:11:43.633Z,19.92
2022-10-24T07:14:11.886Z,19.52
2022-10-24T07:16:40.268Z,18.95
2022-10-24T07:19:09.903Z,19.30
2022-10-24T07:21:38.783Z,20.15
2022-10-24T07:24:07.794Z,20.23
2022-10-24T07:26:35.637Z,18.63
2022-10-24T07:29:04.610Z,18.58
2022-10-24T07:31:34.966Z,21.20
2022-10-24T07:34:04.823Z,18.02
2022-10-24T07:36:34.353Z,18.20
2022-10-24T07:39:02.324Z,19.30
2022-10-24T07:41:32.162Z,18.42
2022-10-24T07:44:02.240Z,19.77
2022-10-24T07:46:30.570Z,19.08
2022-10-24T07:48:58.723Z,20.85
2022-10-24T07:51:28.548Z,20.73
2022-10-24T07:53:58.297Z,20.80
2022-10-24T07:56:26.438Z,18.58
2022-10-24T07:58:55.126Z,17.33
2022-10-24T08:01:25.329Z,17.45
2022-10-24T08:03:53.344Z,16.95
2022-10-24T08:06:23.279Z,19.20
2022-10-24T08:08:51.400Z,18.40
2022-10-24T08:11:22.272Z,18.92
2022-10-24T08:13:51.214Z,18.45
2022-10-24T08:16:22.004Z,17.98
2022-10-24T08:18:52.095Z,17.73
2022-10-24T08:21:21.428Z,17.33
2022-10-24T08:23:52.164Z,17.35
2022-10-24T08:26:23.591Z,17.77
2022-10-24T08:28:51.883Z,17.25
2022-10-24T08:31:22.114Z,18.33
2022-10-24T08:33:52.999Z,16.67
2022-10-24T08:36:24.319Z,17.60
2022-10-24T08:38:52.216Z,16.40
2022-10-24T08:41:27.862Z,14.95
2022-10-24T08:43:57.460Z,16.33
2022-10-24T08:46:38.351Z,15.75
2022-10-24T08:49:15.205Z,16.77
2022-10-24T08:51:47.212Z,15.55
2022-10-24T08:54:19.574Z,15.85
2022-10-24T08:56:49.482Z,16.67
2022-10-24T08:59:17.431Z,17.17
2022-10-24T09:01:49.637Z,17.20
2022-10-24T09:04:21.111Z,16.48
2022-10-24T09:06:50.218Z,14.38
2022-10-24T09:09:24.385Z,14.48
2022-10-24T09:11:55.990Z,15.82
2022-10-24T09:14:27.428Z,15.25
2022-10-24T09:16:59.918Z,13.35
2022-10-24T09:19:30.397Z,11.52
2022-10-24T09:22:00.137Z,11.65
2022-10-24T09:24:34.492Z,12.27
2022-10-24T09:27:06.908Z,11.40
2022-10-24T09:29:35.141Z,11.68
2022-10-24T09:32:04.333Z,11.45
2022-10-24T09:34:32.233Z,10.05
2022-10-24T09:37:00.185Z,10.20
2022-10-24T09:39:31.299Z,10.40
2022-10-24T09:42:00.882Z,12.48
2022-10-24T09:44:34.464Z,13.55
2022-10-24T09:47:04.528Z,11.70
2022-10-24T09:49:36.568Z,10.82
2022-10-24T09:52:09.788Z,10.75
2022-10-24T09:54:38.050Z,9.40
2022-10-24T09:57:13.453Z,9.75
2022-10-24T09:59:45.189Z,9.20
2022-10-24T10:02:21.009Z,10.18
2022-10-24T10:04:50.234Z,18.40
2022-10-24T10:07:20.386Z,9.95
2022-10-24T10:09:56.520Z,11.60
2022-10-24T10:12:30.401Z,9.23
2022-10-24T10:15:00.599Z,9.75
2022-10-24T10:17:31.336Z,9.00
2022-10-24T10:19:59.834Z,10.07
2022-10-24T10:22:30.229Z,9.25
2022-10-24T10:24:59.216Z,12.18
2022-10-24T10:27:32.103Z,10.07
2022-10-24T10:30:22.101Z,9.23
2022-10-24T10:33:12.666Z,9.77
2022-10-24T10:35:49.530Z,9.13
2022-10-24T10:38:37.316Z,9.32
2022-10-24T10:41:08.940Z,8.80
2022-10-24T10:43:44.228Z,8.50
2022-10-24T10:46:24.123Z,8.23
2022-10-24T10:49:03.966Z,8.50
2022-10-24T10:51:43.529Z,8.32
2022-10-24T10:54:25.161Z,8.65
2022-10-24T10:56:55.628Z,8.20
2022-10-24T10:59:40.247Z,7.78
2022-10-24T11:02:28.212Z,7.38
2022-10-24T11:05:05.551Z,7.60
2022-10-24T11:07:41.958Z,9.05
2022-10-24T11:10:14.030Z,8.43
2022-10-24T11:12:44.843Z,8.02
2022-10-24T11:15:21.374Z,8.30
2022-10-24T11:17:56.953Z,8.50
2022-10-24T11:20:28.984Z,7.70
2022-10-24T11:23:01.587Z,7.85
2022-10-24T11:25:37.420Z,8.05
2022-10-24T11:28:13.560Z,8.02
2022-10-24T11:30:48.366Z,8.43
2022-10-24T11:33:21.247Z,7.80
2022-10-24T11:36:08.341Z,7.63
2022-10-24T11:38:41.989Z,9.05
2022-10-24T11:41:48.144Z,7.57
2022-10-24T11:44:31.520Z,8.20
2022-10-24T11:47:08.607Z,7.55
2022-10-24T11:49:43.131Z,7.85
2022-10-24T11:52:18.180Z,8.77
2022-10-24T11:54:52.766Z,8.32
2022-10-24T11:57:25.006Z,7.85
2022-10-24T11:59:54.352Z,7.25
2022-10-24T12:03:18.980Z,7.53
2022-10-24T12:06:01.526Z,7.90
2022-10-24T12:08:48.743Z,8.68
2022-10-24T12:11:40.328Z,7.05
2022-10-24T12:14:27.061Z,8.32
2022-10-24T12:17:15.909Z,9.00
2022-10-24T12:19:46.644Z,9.77
2022-10-24T12:22:21.939Z,8.38
2022-10-24T12:24:50.509Z,8.93
2022-10-24T12:27:28.295Z,7.88
2022-10-24T12:30:05.954Z,8.32
2022-10-24T12:32:40.608Z,8.07
2022-10-24T12:35:44.401Z,8.80
2022-10-24T12:38:20.262Z,8.40
2022-10-24T12:40:52.189Z,8.27
2022-10-24T12:43:44.319Z,7.43
2022-10-24T12:46:53.663Z,9.55
2022-10-24T12:49:28.347Z,8.27
2022-10-24T12:51:57.128Z,8.88
2022-10-24T12:54:43.044Z,9.02
2022-10-24T12:57:23.896Z,7.68
2022-10-24T12:59:53.808Z,7.63
2022-10-24T13:02:48.319Z,8.10
2022-10-24T13:05:34.963Z,7.57
2022-10-24T13:08:19.094Z,8.27
2022-10-24T13:10:59.060Z,8.30
2022-10-24T13:14:06.533Z,8.25
2022-10-24T13:16:45.277Z,8.10
2022-10-24T13:19:18.511Z,7.68
2022-10-24T13:21:49.247Z,8.18
2022-10-24T13:24:25.800Z,8.02
2022-10-24T13:27:38.391Z,7.65
2022-10-24T13:30:34.699Z,8.13
2022-10-24T13:33:41.031Z,7.72
2022-10-24T13:36:16.653Z,7.95
2022-10-24T13:38:49.555Z,7.28
2022-10-24T13:41:24.850Z,7.32
2022-10-24T13:43:56.165Z,8.50
2022-10-24T13:46:34.218Z,8.07
2022-10-24T13:49:04.231Z,8.30
2022-10-24T13:51:38.136Z,7.85
2022-10-24T13:54:12.277Z,7.88
2022-10-24T13:56:44.342Z,7.85
2022-10-24T13:59:30.474Z,8.30
2022-10-24T14:02:03.091Z,8.35
2022-10-24T14:04:32.000Z,7.55
2022-10-24T14:07:03.667Z,8.55
2022-10-24T14:09:32.157Z,7.95
2022-10-24T14:12:00.051Z,9.35
2022-10-24T14:14:31.326Z,7.80
2022-10-24T14:17:23.315Z,8.15
2022-10-24T14:19:55.552Z,8.25
2022-10-24T14:22:26.175Z,8.52
2022-10-24T14:24:54.080Z,7.18
2022-10-24T14:27:22.368Z,8.90
2022-10-24T14:30:01.842Z,8.90
2022-10-24T14:32:32.326Z,8.75
2022-10-24T14:37:37.612Z,8.70
2022-10-24T14:40:07.160Z,9.40
2022-10-24T14:42:35.710Z,8.82
2022-10-24T14:45:03.615Z,9.27
2022-10-24T14:47:38.921Z,9.05
2022-10-24T14:50:37.988Z,9.30
2022-10-24T14:53:06.568Z,8.85
2022-10-24T14:55:34.782Z,8.38
2022-10-24T14:58:02.642Z,7.55
2022-10-24T15:00:39.361Z,8.13
2022-10-24T15:03:11.096Z,7.45
2022-10-24T15:05:41.487Z,7.95
2022-10-24T15:08:28.889Z,8.57
2022-10-24T15:11:15.164Z,8.05
2022-10-24T15:13:59.974Z,8.00
2022-10-24T15:16:37.740Z,9.00
2022-10-24T15:19:13.696Z,8.43
2022-10-24T15:21:47.309Z,8.68
2022-10-24T15:24:22.917Z,9.52
2022-10-24T15:26:50.879Z,10.82
2022-10-24T15:29:21.995Z,13.02
2022-10-24T15:31:51.829Z,11.52
2022-10-24T15:34:22.822Z,10.20
2022-10-24T15:36:53.125Z,10.73
2022-10-24T15:39:24.403Z,12.45
2022-10-24T15:41:52.853Z,14.23
2022-10-24T15:44:24.970Z,18.40
2022-10-24T15:46:52.796Z,12.70
2022-10-24T15:49:22.307Z,11.50
2022-10-24T15:51:51.427Z,10.73
2022-10-24T15:54:21.255Z,10.45
2022-10-24T15:56:49.314Z,13.80
2022-10-24T15:59:18.543Z,10.70
2022-10-24T16:01:50.750Z,10.18
2022-10-24T16:04:20.170Z,10.30
2022-10-24T16:06:49.683Z,10.80
2022-10-24T16:09:20.257Z,11.23
2022-10-24T16:11:48.604Z,12.98
2022-10-24T16:14:17.935Z,13.90
2022-10-24T16:16:45.826Z,13.20
2022-10-24T16:19:13.717Z,12.18
2022-10-24T16:21:42.631Z,11.38
2022-10-24T16:24:14.057Z,12.10
2022-10-24T16:26:42.209Z,12.57
2022-10-24T16:29:10.036Z,14.48
2022-10-24T16:31:38.375Z,14.63
2022-10-24T16:34:07.377Z,15.00
2022-10-24T16:36:35.317Z,16.50
2022-10-24T16:39:03.634Z,16.80
2022-10-24T16:41:33.002Z,18.63
2022-10-24T16:44:01.037Z,16.73
2022-10-24T16:46:29.323Z,15.93
2022-10-24T16:48:58.064Z,17.63
2022-10-24T16:51:32.013Z,18.00
2022-10-24T16:54:00.376Z,14.70
2022-10-24T16:56:28.349Z,14.83
2022-10-24T16:58:57.636Z,13.20
2022-10-24T17:01:27.547Z,16.00
2022-10-24T17:03:55.844Z,16.03
2022-10-24T17:06:24.005Z,15.03
2022-10-24T17:08:52.603Z,14.83
2022-10-24T17:11:43.683Z,17.00
2022-10-24T17:14:10.371Z,17.10
2022-10-24T17:16:38.236Z,16.37
2022-10-24T17:19:15.701Z,16.57
2022-10-24T17:21:46.780Z,15.53
2022-10-24T17:24:16.219Z,21.40
2022-10-24T17:26:44.294Z,17.30
2022-10-24T17:29:20.274Z,18.13
2022-10-24T17:31:48.505Z,18.93
2022-10-24T17:34:16.635Z,20.97
2022-10-24T17:36:48.406Z,22.63
2022-10-24T17:39:22.259Z,21.97
2022-10-24T17:41:53.786Z,25.00
2022-10-24T17:44:23.716Z,32.63
2022-10-24T17:46:55.905Z,21.10
2022-10-24T17:49:26.682Z,19.37
2022-10-24T17:51:54.588Z,19.03
2022-10-24T17:54:22.901Z,17.17
2022-10-24T17:56:50.958Z,22.77
2022-10-24T17:59:18.843Z,23.10
2022-10-24T18:01:48.229Z,19.20
2022-10-24T18:04:16.617Z,17.50
2022-10-24T18:06:44.786Z,17.03
2022-10-24T18:09:13.278Z,16.37
2022-10-24T18:11:41.220Z,16.83
2022-10-24T18:14:09.166Z,17.97
2022-10-24T18:16:39.438Z,17.87
2022-10-24T18:19:08.707Z,17.17
2022-10-24T18:21:36.635Z,17.80
2022-10-24T18:24:07.385Z,19.00
2022-10-24T18:26:35.424Z,18.23
2022-10-24T18:29:03.271Z,18.30
2022-10-24T18:31:33.977Z,17.90
2022-10-24T18:34:06.051Z,15.93
2022-10-24T18:36:37.487Z,17.07
2022-10-24T18:39:06.081Z,22.17
2022-10-24T18:41:44.964Z,20.63
2022-10-24T18:44:24.237Z,21.70
2022-10-24T18:46:53.453Z,22.83
2022-10-24T18:49:22.004Z,27.93
2022-10-24T18:52:02.759Z,30.13
2022-10-24T18:54:31.408Z,25.97
2022-10-24T18:57:00.792Z,23.50
2022-10-24T18:59:30.861Z,23.23
2022-10-24T19:02:17.076Z,25.10
2022-10-24T19:04:49.236Z,25.30
2022-10-24T19:07:19.563Z,25.67
2022-10-24T19:09:47.610Z,25.40
2022-10-24T19:12:17.729Z,25.47
2022-10-24T19:14:47.206Z,26.20
2022-10-24T19:17:16.278Z,28.23
2022-10-24T19:19:44.335Z,25.70
2022-10-24T19:22:12.201Z,28.07
2022-10-24T19:24:41.477Z,26.13
2022-10-24T19:27:09.531Z,27.00
2022-10-24T19:29:37.531Z,25.83
2022-10-24T19:32:05.668Z,34.73
2022-10-24T19:34:34.836Z,38.90
2022-10-24T19:37:03.781Z,37.00
2022-10-24T19:39:33.895Z,42.13
2022-10-24T19:42:03.452Z,36.67
2022-10-24T19:44:31.272Z,37.27
2022-10-24T19:46:59.106Z,30.67
2022-10-24T19:49:26.949Z,47.87
2022-10-24T19:51:56.836Z,36.70
2022-10-24T19:54:24.721Z,45.20
2022-10-24T19:56:54.406Z,46.27
2022-10-24T19:59:23.680Z,54.17
2022-10-24T20:01:51.608Z,49.50
2022-10-24T20:04:19.656Z,32.20
2022-10-24T20:06:48.028Z,36.43
2022-10-24T20:09:16.030Z,35.80
2022-10-24T20:11:43.873Z,34.83
2022-10-24T20:14:11.771Z,33.57
2022-10-24T20:16:41.038Z,33.20
2022-10-24T20:19:08.883Z,32.37
2022-10-24T20:21:37.626Z,25.13
2022-10-24T20:24:06.189Z,24.90
2022-10-24T20:26:34.325Z,30.27
2022-10-24T20:29:02.349Z,30.17
2022-10-24T20:31:32.376Z,26.30
2022-10-24T20:34:07.996Z,22.97
2022-10-24T20:36:37.076Z,33.73
2022-10-24T20:39:05.537Z,37.13
2022-10-24T20:41:33.472Z,53.97
2022-10-24T20:44:02.496Z,40.07
2022-10-24T20:46:30.389Z,34.80
2022-10-24T20:48:58.768Z,31.17
2022-10-24T20:51:28.262Z,26.93
2022-10-24T20:53:56.126Z,19.07
2022-10-24T20:56:26.764Z,18.47
2022-10-24T20:58:56.331Z,18.10
2022-10-24T21:01:25.717Z,20.53
2022-10-24T21:03:54.844Z,18.00
2022-10-24T21:06:24.965Z,17.77
2022-10-24T21:08:56.413Z,22.20
2022-10-24T21:11:27.344Z,23.20
2022-10-24T21:13:57.125Z,24.20
2022-10-24T21:16:26.050Z,24.83
2022-10-24T21:18:54.424Z,26.97
2022-10-24T21:21:23.686Z,24.93
2022-10-24T21:23:52.832Z,25.37
2022-10-24T21:26:22.783Z,25.47
2022-10-24T21:28:53.999Z,26.77
2022-10-24T21:31:27.311Z,27.33
2022-10-24T21:33:55.818Z,35.57
2022-10-24T21:36:24.540Z,26.63
2022-10-24T21:38:54.093Z,24.83
2022-10-24T21:41:24.049Z,22.53
2022-10-24T21:43:53.010Z,22.77
2022-10-24T21:46:22.483Z,28.20
2022-10-24T21:48:52.143Z,24.70
2022-10-24T21:51:21.834Z,24.00
2022-10-24T21:53:51.387Z,23.50
2022-10-24T21:56:21.172Z,23.50
2022-10-24T21:58:52.018Z,24.33
2022-10-24T22:01:21.781Z,30.13
2022-10-24T22:03:49.695Z,24.23
2022-10-24T22:06:19.271Z,24.87
2022-10-24T22:08:48.568Z,26.87
2022-10-24T22:11:18.328Z,23.37
2022-10-24T22:13:46.592Z,22.77
2022-10-24T22:16:17.775Z,22.67
2022-10-24T22:18:46.127Z,22.73
2022-10-24T22:21:23.687Z,21.33
2022-10-24T22:23:51.636Z,22.13
2022-10-24T22:26:19.660Z,23.07
2022-10-24T22:28:47.537Z,24.03
2022-10-24T22:31:17.792Z,24.40
2022-10-24T22:33:46.261Z,21.47
2022-10-24T22:36:20.971Z,19.70
2022-10-24T22:38:53.124Z,20.80
2022-10-24T22:41:21.700Z,20.33
2022-10-24T22:43:50.278Z,25.03
2022-10-24T22:46:33.906Z,26.87
2022-10-24T22:51:42.979Z,20.20
2022-10-24T22:54:17.809Z,18.73
2022-10-24T22:56:46.279Z,19.10
2022-10-24T22:59:14.606Z,20.17
2022-10-24T23:01:57.924Z,19.03
2022-10-24T23:04:35.063Z,19.27
2022-10-24T23:07:11.394Z,18.43
2022-10-24T23:09:39.277Z,22.10
2022-10-24T23:12:13.602Z,20.43
2022-10-24T23:14:42.182Z,18.53
2022-10-24T23:17:13.929Z,19.97
2022-10-24T23:19:46.865Z,19.27
2022-10-24T23:22:23.080Z,19.47
2022-10-24T23:24:52.118Z,19.43
2022-10-24T23:27:44.970Z,17.47
2022-10-24T23:30:19.082Z,18.53
2022-10-24T23:32:49.931Z,19.90
2022-10-24T23:35:20.323Z,20.33
2022-10-24T23:37:50.038Z,19.87
2022-10-24T23:40:29.997Z,19.47
2022-10-24T23:42:58.921Z,18.17
2022-10-24T23:45:28.491Z,18.57
2022-10-24T23:48:08.703Z,17.70
2022-10-24T23:50:45.873Z,21.37
2022-10-24T23:53:24.911Z,25.57
2022-10-24T23:55:53.437Z,26.30
2022-10-24T23:58:21.477Z,26.43
